PHJR METAR and TAF | Updated Today

PHJR METAR

Kalaeloa Airport

Observation time: 3 min. ago

PHJR 251853Z 06006KT 10SM CLR 27/17 A3004 RMK AO2 SLP178 T02720172

Need help? Read our tutorial on how to read METARs or read the parsed version below.

Kalaeloa Airport (PHJR) METAR

  • Weather conditions on Wed, 25 May 2022 18:53:00 +0000 (3 min. ago):
  • Present conditions: Dry
  • Clouds: Clear skies
  • Visibility: 16093 meters
  • Wind: 60 degrees at 6 knots
  • Temperature: 27 celsius
  • Dew point: 17 celsius
  • Pressure: 30.04 inHg
  • Remarks: AO2 SLP178 T02720172


Useful to know...

PHJR TAF

Kalaeloa Airport

PHJR 251721Z 2518/2618 05004KT P6SM FEW030 FM252000 12010KT P6SM FEW030 SCT045 FM260500 03004KT P6SM FEW030
Observation time: 1:35 hr. ago
Need help? Read our tutorial on how to read TAFs or read the parsed version below.

Parsed version of TAF for Kalaeloa Airport (PHJR)

  • From 25 May at 18:00 UTC, to day 26 of the month at 18:00 UTC
  • Clouds: A few at 914 meters
  • Wind: 50 degrees at 4
  • From day 25 of the month at 20:00 UTC
  • Clouds: A few at 914 meters; scattered at 1372 meters
  • Wind: 120 degrees at 10
  • From day 26 of the month at 05:00 UTC
  • Clouds: A few at 914 meters
  • Wind: 30 degrees at 4